sensor_id;sensor_type;location;lat;lon;timestamp;pressure;altitude;pressure_sealevel;temperature
41654;BMP280;30790;52.030;7.110;2022-10-04T00:01:29;101620.00;;;20.72
41654;BMP280;30790;52.030;7.110;2022-10-04T00:09:21;101625.69;;;20.71
41654;BMP280;30790;52.030;7.110;2022-10-04T00:11:49;101638.88;;;20.74
41654;BMP280;30790;52.030;7.110;2022-10-04T00:14:24;101632.81;;;20.72
41654;BMP280;30790;52.030;7.110;2022-10-04T00:16:53;101627.38;;;20.72
41654;BMP280;30790;52.030;7.110;2022-10-04T00:22:09;101623.56;;;20.73
41654;BMP280;30790;52.030;7.110;2022-10-04T00:24:37;101619.19;;;20.72
41654;BMP280;30790;52.030;7.110;2022-10-04T00:27:23;101613.13;;;20.70
41654;BMP280;30790;52.030;7.110;2022-10-04T00:38:13;101604.56;;;20.66
41654;BMP280;30790;52.030;7.110;2022-10-04T00:40:54;101606.22;;;20.67
41654;BMP280;30790;52.030;7.110;2022-10-04T00:43:27;101602.66;;;20.66
41654;BMP280;30790;52.030;7.110;2022-10-04T00:45:58;101598.88;;;20.67
41654;BMP280;30790;52.030;7.110;2022-10-04T00:48:37;101604.31;;;20.67
41654;BMP280;30790;52.030;7.110;2022-10-04T00:51:25;101598.88;;;20.67
41654;BMP280;30790;52.030;7.110;2022-10-04T00:54:06;101588.41;;;20.64
41654;BMP280;30790;52.030;7.110;2022-10-04T00:56:40;101584.63;;;20.65
41654;BMP280;30790;52.030;7.110;2022-10-04T01:04:39;101586.28;;;20.66
41654;BMP280;30790;52.030;7.110;2022-10-04T01:07:07;101582.34;;;20.62
41654;BMP280;30790;52.030;7.110;2022-10-04T01:09:38;101569.78;;;20.61
41654;BMP280;30790;52.030;7.110;2022-10-04T01:12:18;101579.84;;;20.61
41654;BMP280;30790;52.030;7.110;2022-10-04T01:15:02;101575.84;;;20.63
41654;BMP280;30790;52.030;7.110;2022-10-04T01:17:28;101566.66;;;20.58
41654;BMP280;30790;52.030;7.110;2022-10-04T01:19:54;101563.25;;;20.62
41654;BMP280;30790;52.030;7.110;2022-10-04T01:22:40;101559.91;;;20.60
41654;BMP280;30790;52.030;7.110;2022-10-04T01:25:07;101559.69;;;20.62
41654;BMP280;30790;52.030;7.110;2022-10-04T01:27:42;101560.53;;;20.62
41654;BMP280;30790;52.030;7.110;2022-10-04T01:30:14;101557.44;;;20.59
41654;BMP280;30790;52.030;7.110;2022-10-04T01:32:41;101563.72;;;20.59
41654;BMP280;30790;52.030;7.110;2022-10-04T01:35:09;101558.88;;;20.61
41654;BMP280;30790;52.030;7.110;2022-10-04T01:37:36;101554.69;;;20.59
41654;BMP280;30790;52.030;7.110;2022-10-04T01:40:03;101549.25;;;20.59
41654;BMP280;30790;52.030;7.110;2022-10-04T01:42:39;101550.31;;;20.58
41654;BMP280;30790;52.030;7.110;2022-10-04T01:45:15;101543.19;;;20.57
41654;BMP280;30790;52.030;7.110;2022-10-04T01:47:55;101544.00;;;20.57
41654;BMP280;30790;52.030;7.110;2022-10-04T01:52:55;101535.66;;;20.52
41654;BMP280;30790;52.030;7.110;2022-10-04T01:55:28;101543.19;;;20.57
41654;BMP280;30790;52.030;7.110;2022-10-04T01:58:01;101530.81;;;20.54
41654;BMP280;30790;52.030;7.110;2022-10-04T02:00:27;101529.78;;;20.55
41654;BMP280;30790;52.030;7.110;2022-10-04T02:02:57;101535.84;;;20.57
41654;BMP280;30790;52.030;7.110;2022-10-04T02:05:49;101522.41;;;20.56
41654;BMP280;30790;52.030;7.110;2022-10-04T02:08:16;101508.38;;;20.52
41654;BMP280;30790;52.030;7.110;2022-10-04T02:10:47;101506.72;;;20.51
41654;BMP280;30790;52.030;7.110;2022-10-04T02:13:15;101508.97;;;20.54
41654;BMP280;30790;52.030;7.110;2022-10-04T02:15:46;101508.38;;;20.52
41654;BMP280;30790;52.030;7.110;2022-10-04T02:18:19;101514.91;;;20.51
41654;BMP280;30790;52.030;7.110;2022-10-04T02:20:47;101518.88;;;20.55
41654;BMP280;30790;52.030;7.110;2022-10-04T02:23:16;101514.06;;;20.51
41654;BMP280;30790;52.030;7.110;2022-10-04T02:25:42;101505.06;;;20.50
41654;BMP280;30790;52.030;7.110;2022-10-04T02:28:09;101512.16;;;20.51
41654;BMP280;30790;52.030;7.110;2022-10-04T02:30:41;101513.84;;;20.52
41654;BMP280;30790;52.030;7.110;2022-10-04T02:33:09;101508.59;;;20.51
41654;BMP280;30790;52.030;7.110;2022-10-04T02:35:41;101508.38;;;20.52
41654;BMP280;30790;52.030;7.110;2022-10-04T02:38:28;101506.34;;;20.48
41654;BMP280;30790;52.030;7.110;2022-10-04T02:41:02;101511.09;;;20.52
41654;BMP280;30790;52.030;7.110;2022-10-04T02:43:37;101502.78;;;20.47
41654;BMP280;30790;52.030;7.110;2022-10-04T02:46:08;101498.75;;;20.50
41654;BMP280;30790;52.030;7.110;2022-10-04T02:48:53;101500.88;;;20.48
41654;BMP280;30790;52.030;7.110;2022-10-04T02:54:44;101495.19;;;20.49
41654;BMP280;30790;52.030;7.110;2022-10-04T02:56:52;101487.03;;;20.49
41654;BMP280;30790;52.030;7.110;2022-10-04T02:59:20;101475.13;;;20.44
41654;BMP280;30790;52.030;7.110;2022-10-04T03:02:00;101479.06;;;20.48
41654;BMP280;30790;52.030;7.110;2022-10-04T03:04:38;101472.41;;;20.44
41654;BMP280;30790;52.030;7.110;2022-10-04T03:07:05;101467.19;;;20.42
41654;BMP280;30790;52.030;7.110;2022-10-04T03:09:33;101472.78;;;20.47
41654;BMP280;30790;52.030;7.110;2022-10-04T03:12:01;101474.06;;;20.45
41654;BMP280;30790;52.030;7.110;2022-10-04T03:14:28;101469.91;;;20.42
41654;BMP280;30790;52.030;7.110;2022-10-04T03:16:57;101468.66;;;20.38
41654;BMP280;30790;52.030;7.110;2022-10-04T03:19:25;101471.56;;;20.43
41654;BMP280;30790;52.030;7.110;2022-10-04T03:21:55;101471.56;;;20.43
41654;BMP280;30790;52.030;7.110;2022-10-04T03:24:28;101476.81;;;20.45
41654;BMP280;30790;52.030;7.110;2022-10-04T03:26:56;101475.97;;;20.44
41654;BMP280;30790;52.030;7.110;2022-10-04T03:29:24;101479.53;;;20.45
41654;BMP280;30790;52.030;7.110;2022-10-04T03:31:53;101466.78;;;20.38
41654;BMP280;30790;52.030;7.110;2022-10-04T03:34:24;101466.13;;;20.43
41654;BMP280;30790;52.030;7.110;2022-10-04T03:36:52;101460.06;;;20.41
41654;BMP280;30790;52.030;7.110;2022-10-04T03:39:36;101456.03;;;20.44
41654;BMP280;30790;52.030;7.110;2022-10-04T03:42:08;101449.75;;;20.43
41654;BMP280;30790;52.030;7.110;2022-10-04T03:44:35;101442.63;;;20.42
41654;BMP280;30790;52.030;7.110;2022-10-04T03:47:07;101430.06;;;20.41
41654;BMP280;30790;52.030;7.110;2022-10-04T03:49:35;101440.97;;;20.41
41654;BMP280;30790;52.030;7.110;2022-10-04T03:52:02;101441.81;;;20.42
41654;BMP280;30790;52.030;7.110;2022-10-04T03:54:28;101442.88;;;20.41
41654;BMP280;30790;52.030;7.110;2022-10-04T03:56:55;101445.59;;;20.41
41654;BMP280;30790;52.030;7.110;2022-10-04T03:59:23;101443.69;;;20.41
41654;BMP280;30790;52.030;7.110;2022-10-04T04:02:04;101443.47;;;20.43
41654;BMP280;30790;52.030;7.110;2022-10-04T04:04:35;101435.91;;;20.45
41654;BMP280;30790;52.030;7.110;2022-10-04T04:07:09;101428.41;;;20.40
41654;BMP280;30790;52.030;7.110;2022-10-04T04:12:21;101425.22;;;20.43
41654;BMP280;30790;52.030;7.110;2022-10-04T04:14:49;101424.28;;;20.49
41654;BMP280;30790;52.030;7.110;2022-10-04T04:19:50;101417.94;;;20.55
41654;BMP280;30790;52.030;7.110;2022-10-04T04:22:16;101414.97;;;20.57
41654;BMP280;30790;52.030;7.110;2022-10-04T04:24:42;101408.22;;;20.59
41654;BMP280;30790;52.030;7.110;2022-10-04T04:27:09;101409.91;;;20.60
41654;BMP280;30790;52.030;7.110;2022-10-04T04:29:46;101417.38;;;20.65
41654;BMP280;30790;52.030;7.110;2022-10-04T04:32:20;101416.09;;;20.67
41654;BMP280;30790;52.030;7.110;2022-10-04T04:34:52;101424.88;;;20.70
41654;BMP280;30790;52.030;7.110;2022-10-04T04:37:21;101408.81;;;20.61
41654;BMP280;30790;52.030;7.110;2022-10-04T04:39:48;101414.41;;;20.66
41654;BMP280;30790;52.030;7.110;2022-10-04T04:44:59;101404.09;;;20.68
41654;BMP280;30790;52.030;7.110;2022-10-04T04:47:37;101402.56;;;20.73
41654;BMP280;30790;52.030;7.110;2022-10-04T04:52:37;101395.69;;;20.70
41654;BMP280;30790;52.030;7.110;2022-10-04T04:55:05;101395.69;;;20.70
41654;BMP280;30790;52.030;7.110;2022-10-04T04:57:31;101397.59;;;20.70
41654;BMP280;30790;52.030;7.110;2022-10-04T04:59:59;101383.34;;;20.67
41654;BMP280;30790;52.030;7.110;2022-10-04T05:02:34;101387.28;;;20.72
41654;BMP280;30790;52.030;7.110;2022-10-04T05:07:42;101404.94;;;20.69
41654;BMP280;30790;52.030;7.110;2022-10-04T05:10:27;101414.09;;;20.75
41654;BMP280;30790;52.030;7.110;2022-10-04T05:12:54;101416.22;;;20.73
41654;BMP280;30790;52.030;7.110;2022-10-04T05:15:20;101409.47;;;20.75
41654;BMP280;30790;52.030;7.110;2022-10-04T05:17:46;101403.41;;;20.73
41654;BMP280;30790;52.030;7.110;2022-10-04T05:20:13;101407.78;;;20.74
41654;BMP280;30790;52.030;7.110;2022-10-04T05:22:42;101412.94;;;20.82
41654;BMP280;30790;52.030;7.110;2022-10-04T05:27:43;101403.97;;;21.05
41654;BMP280;30790;52.030;7.110;2022-10-04T05:30:24;101405.91;;;21.16
41654;BMP280;30790;52.030;7.110;2022-10-04T05:33:05;101396.56;;;21.24
41654;BMP280;30790;52.030;7.110;2022-10-04T05:35:50;101393.38;;;21.27
41654;BMP280;30790;52.030;7.110;2022-10-04T05:44:18;101395.97;;;21.34
41654;BMP280;30790;52.030;7.110;2022-10-04T05:46:44;101405.59;;;21.36
41654;BMP280;30790;52.030;7.110;2022-10-04T05:49:13;101414.41;;;21.38
41654;BMP280;30790;52.030;7.110;2022-10-04T05:51:55;101418.56;;;21.41
41654;BMP280;30790;52.030;7.110;2022-10-04T05:54:26;101408.44;;;21.29
41654;BMP280;30790;52.030;7.110;2022-10-04T05:59:53;101411.91;;;21.37
41654;BMP280;30790;52.030;7.110;2022-10-04T06:05:13;101406.81;;;21.40
41654;BMP280;30790;52.030;7.110;2022-10-04T06:08:08;101409.31;;;21.42
41654;BMP280;30790;52.030;7.110;2022-10-04T06:13:57;101414.41;;;21.38
41654;BMP280;30790;52.030;7.110;2022-10-04T06:18:52;101411.91;;;21.37
41654;BMP280;30790;52.030;7.110;2022-10-04T06:21:44;101405.84;;;21.35
41654;BMP280;30790;52.030;7.110;2022-10-04T06:24:34;101401.00;;;21.37
41654;BMP280;30790;52.030;7.110;2022-10-04T06:27:13;101401.00;;;21.37
41654;BMP280;30790;52.030;7.110;2022-10-04T06:33:01;101405.84;;;21.35
41654;BMP280;30790;52.030;7.110;2022-10-04T06:35:48;101411.91;;;21.37
41654;BMP280;30790;52.030;7.110;2022-10-04T06:38:29;101403.94;;;21.35
41654;BMP280;30790;52.030;7.110;2022-10-04T06:41:07;101413.56;;;21.38
41654;BMP280;30790;52.030;7.110;2022-10-04T06:44:02;101412.75;;;21.37
41654;BMP280;30790;52.030;7.110;2022-10-04T06:46:45;101404.16;;;21.34
41654;BMP280;30790;52.030;7.110;2022-10-04T06:49:44;101401.09;;;21.30
41654;BMP280;30790;52.030;7.110;2022-10-04T06:52:40;101406.78;;;21.28
41654;BMP280;30790;52.030;7.110;2022-10-04T06:55:30;101409.75;;;21.27
41654;BMP280;30790;52.030;7.110;2022-10-04T06:58:16;101413.97;;;21.23
41654;BMP280;30790;52.030;7.110;2022-10-04T07:00:51;101416.34;;;21.19
41654;BMP280;30790;52.030;7.110;2022-10-04T07:03:26;101421.22;;;21.17
41654;BMP280;30790;52.030;7.110;2022-10-04T07:06:04;101413.88;;;21.18
41654;BMP280;30790;52.030;7.110;2022-10-04T07:08:40;101419.31;;;21.18
41654;BMP280;30790;52.030;7.110;2022-10-04T07:16:48;101429.13;;;21.07
41654;BMP280;30790;52.030;7.110;2022-10-04T07:24:26;101428.00;;;21.15
41654;BMP280;30790;52.030;7.110;2022-10-04T07:26:53;101428.69;;;21.10
41654;BMP280;30790;52.030;7.110;2022-10-04T07:29:26;101440.69;;;21.09
41654;BMP280;30790;52.030;7.110;2022-10-04T07:34:32;101441.13;;;21.06
41654;BMP280;30790;52.030;7.110;2022-10-04T07:37:06;101445.06;;;21.10
41654;BMP280;30790;52.030;7.110;2022-10-04T07:39:41;101442.34;;;21.10
41654;BMP280;30790;52.030;7.110;2022-10-04T07:42:25;101433.75;;;21.07
41654;BMP280;30790;52.030;7.110;2022-10-04T07:47:25;101439.38;;;21.12
41654;BMP280;30790;52.030;7.110;2022-10-04T07:49:53;101449.22;;;21.13
41654;BMP280;30790;52.030;7.110;2022-10-04T07:53:19;101445.06;;;21.10
41654;BMP280;30790;52.030;7.110;2022-10-04T07:55:25;101447.81;;;21.10
41654;BMP280;30790;52.030;7.110;2022-10-04T08:03:55;101445.56;;;21.19
41654;BMP280;30790;52.030;7.110;2022-10-04T08:06:34;101435.94;;;21.16
41654;BMP280;30790;52.030;7.110;2022-10-04T08:12:24;101432.28;;;21.22
41654;BMP280;30790;52.030;7.110;2022-10-04T08:15:14;101430.16;;;21.24
41654;BMP280;30790;52.030;7.110;2022-10-04T08:17:52;101435.63;;;21.24
41654;BMP280;30790;52.030;7.110;2022-10-04T08:23:23;101418.78;;;21.27
41654;BMP280;30790;52.030;7.110;2022-10-04T08:26:11;101413.53;;;21.26
41654;BMP280;30790;52.030;7.110;2022-10-04T08:32:13;101405.72;;;21.29
41654;BMP280;30790;52.030;7.110;2022-10-04T08:35:13;101407.38;;;21.31
41654;BMP280;30790;52.030;7.110;2022-10-04T08:38:06;101405.25;;;21.33
41654;BMP280;30790;52.030;7.110;2022-10-04T08:40:59;101405.25;;;21.33
41654;BMP280;30790;52.030;7.110;2022-10-04T08:49:47;101387.53;;;21.35
41654;BMP280;30790;52.030;7.110;2022-10-04T08:52:46;101387.94;;;21.39
41654;BMP280;30790;52.030;7.110;2022-10-04T08:55:28;101391.94;;;21.36
41654;BMP280;30790;52.030;7.110;2022-10-04T09:00:56;101400.75;;;21.50
41654;BMP280;30790;52.030;7.110;2022-10-04T09:17:28;101389.59;;;21.51
41654;BMP280;30790;52.030;7.110;2022-10-04T09:22:46;101380.06;;;21.54
41654;BMP280;30790;52.030;7.110;2022-10-04T09:34:01;101386.63;;;21.65
41654;BMP280;30790;52.030;7.110;2022-10-04T09:56:30;101367.13;;;21.73
41654;BMP280;30790;52.030;7.110;2022-10-04T09:59:23;101370.69;;;21.73
41654;BMP280;30790;52.030;7.110;2022-10-04T10:07:44;101369.63;;;21.74
41654;BMP280;30790;52.030;7.110;2022-10-04T10:10:20;101369.63;;;21.74
41654;BMP280;30790;52.030;7.110;2022-10-04T10:13:21;101373.91;;;21.70
41654;BMP280;30790;52.030;7.110;2022-10-04T10:26:36;101370.59;;;21.68
41654;BMP280;30790;52.030;7.110;2022-10-04T10:29:30;101367.84;;;21.68
41654;BMP280;30790;52.030;7.110;2022-10-04T10:38:05;101368.91;;;21.67
41654;BMP280;30790;52.030;7.110;2022-10-04T10:40:58;101376.63;;;21.70
41654;BMP280;30790;52.030;7.110;2022-10-04T10:54:57;101367.72;;;21.63
41654;BMP280;30790;52.030;7.110;2022-10-04T11:00:20;101356.44;;;21.71
41654;BMP280;30790;52.030;7.110;2022-10-04T11:03:15;101351.56;;;21.73
41654;BMP280;30790;52.030;7.110;2022-10-04T11:08:49;101343.47;;;21.78
41654;BMP280;30790;52.030;7.110;2022-10-04T11:17:11;101337.53;;;21.81
41654;BMP280;30790;52.030;7.110;2022-10-04T11:20:13;101333.72;;;21.82
41654;BMP280;30790;52.030;7.110;2022-10-04T11:23:49;101319.47;;;21.80
41654;BMP280;30790;52.030;7.110;2022-10-04T11:28:56;101338.44;;;21.87
41654;BMP280;30790;52.030;7.110;2022-10-04T11:43:37;101321.81;;;21.88
41654;BMP280;30790;52.030;7.110;2022-10-04T11:46:12;101313.63;;;21.88
41654;BMP280;30790;52.030;7.110;2022-10-04T12:00:25;101287.47;;;21.93
41654;BMP280;30790;52.030;7.110;2022-10-04T12:03:34;101289.97;;;21.94
41654;BMP280;30790;52.030;7.110;2022-10-04T12:12:04;101282.72;;;21.88
41654;BMP280;30790;52.030;7.110;2022-10-04T12:15:12;101284.88;;;21.86
41654;BMP280;30790;52.030;7.110;2022-10-04T12:18:17;101270.38;;;21.85
41654;BMP280;30790;52.030;7.110;2022-10-04T12:20:59;101266.06;;;21.89
41654;BMP280;30790;52.030;7.110;2022-10-04T12:31:34;101247.06;;;21.95
41654;BMP280;30790;52.030;7.110;2022-10-04T12:45:11;101236.00;;;21.89
41654;BMP280;30790;52.030;7.110;2022-10-04T12:48:20;101237.22;;;21.94
41654;BMP280;30790;52.030;7.110;2022-10-04T12:50:59;101242.69;;;21.94
41654;BMP280;30790;52.030;7.110;2022-10-04T12:56:14;101244.81;;;21.92
41654;BMP280;30790;52.030;7.110;2022-10-04T12:58:59;101231.75;;;21.94
41654;BMP280;30790;52.030;7.110;2022-10-04T13:01:36;101232.19;;;21.90
41654;BMP280;30790;52.030;7.110;2022-10-04T13:12:59;101221.63;;;21.94
41654;BMP280;30790;52.030;7.110;2022-10-04T13:15:56;101216.41;;;21.93
41654;BMP280;30790;52.030;7.110;2022-10-04T13:19:15;101217.25;;;21.93
41654;BMP280;30790;52.030;7.110;2022-10-04T13:21:43;101221.63;;;21.94
41654;BMP280;30790;52.030;7.110;2022-10-04T13:30:23;101202.25;;;21.96
41654;BMP280;30790;52.030;7.110;2022-10-04T13:33:23;101191.31;;;21.96
41654;BMP280;30790;52.030;7.110;2022-10-04T13:36:03;101192.97;;;21.97
41654;BMP280;30790;52.030;7.110;2022-10-04T13:38:44;101194.63;;;21.98
41654;BMP280;30790;52.030;7.110;2022-10-04T13:41:19;101188.09;;;21.99
41654;BMP280;30790;52.030;7.110;2022-10-04T13:44:19;101191.31;;;21.96
41654;BMP280;30790;52.030;7.110;2022-10-04T13:49:35;101193.31;;;22.00
41654;BMP280;30790;52.030;7.110;2022-10-04T14:06:51;101184.88;;;22.02
41654;BMP280;30790;52.030;7.110;2022-10-04T14:09:57;101180.72;;;21.99
41654;BMP280;30790;52.030;7.110;2022-10-04T14:12:44;101176.56;;;21.97
41654;BMP280;30790;52.030;7.110;2022-10-04T14:18:46;101175.25;;;21.99
41654;BMP280;30790;52.030;7.110;2022-10-04T14:30:03;101155.03;;;22.00
41654;BMP280;30790;52.030;7.110;2022-10-04T14:32:50;101147.91;;;21.99
41654;BMP280;30790;52.030;7.110;2022-10-04T14:35:27;101147.09;;;21.99
41654;BMP280;30790;52.030;7.110;2022-10-04T14:46:38;101136.44;;;21.85
41654;BMP280;30790;52.030;7.110;2022-10-04T14:54:43;101140.25;;;21.84
41654;BMP280;30790;52.030;7.110;2022-10-04T14:57:55;101138.59;;;21.83
41654;BMP280;30790;52.030;7.110;2022-10-04T15:00:21;101139.09;;;21.80
41654;BMP280;30790;52.030;7.110;2022-10-04T15:06:08;101132.72;;;21.75
41654;BMP280;30790;52.030;7.110;2022-10-04T15:11:55;101132.13;;;21.73
41654;BMP280;30790;52.030;7.110;2022-10-04T15:14:35;101135.44;;;21.75
41654;BMP280;30790;52.030;7.110;2022-10-04T15:17:25;101136.78;;;21.72
41654;BMP280;30790;52.030;7.110;2022-10-04T15:22:41;101135.34;;;21.70
41654;BMP280;30790;52.030;7.110;2022-10-04T15:26:00;101143.06;;;21.73
41654;BMP280;30790;52.030;7.110;2022-10-04T15:31:22;101151.66;;;21.65
41654;BMP280;30790;52.030;7.110;2022-10-04T15:42:38;101135.47;;;21.63
41654;BMP280;30790;52.030;7.110;2022-10-04T15:53:16;101142.19;;;21.55
41654;BMP280;30790;52.030;7.110;2022-10-04T15:55:52;101151.44;;;21.54
41654;BMP280;30790;52.030;7.110;2022-10-04T16:01:34;101143.25;;;21.54
41654;BMP280;30790;52.030;7.110;2022-10-04T16:04:33;101145.75;;;21.56
41654;BMP280;30790;52.030;7.110;2022-10-04T16:07:20;101143.84;;;21.56
41654;BMP280;30790;52.030;7.110;2022-10-04T16:10:06;101139.19;;;21.57
41654;BMP280;30790;52.030;7.110;2022-10-04T16:13:44;101143.59;;;21.58
41654;BMP280;30790;52.030;7.110;2022-10-04T16:15:44;101138.97;;;21.58
41654;BMP280;30790;52.030;7.110;2022-10-04T16:18:35;101136.56;;;21.62
41654;BMP280;30790;52.030;7.110;2022-10-04T16:21:16;101131.34;;;21.60
41654;BMP280;30790;52.030;7.110;2022-10-04T16:30:01;101128.28;;;21.57
41654;BMP280;30790;52.030;7.110;2022-10-04T16:32:37;101119.00;;;21.58
41654;BMP280;30790;52.030;7.110;2022-10-04T16:38:14;101127.91;;;21.65
41654;BMP280;30790;52.030;7.110;2022-10-04T17:05:18;101123.28;;;21.66
41654;BMP280;30790;52.030;7.110;2022-10-04T17:08:17;101121.38;;;21.66
41654;BMP280;30790;52.030;7.110;2022-10-04T17:16:10;101127.91;;;21.65
41654;BMP280;30790;52.030;7.110;2022-10-04T17:32:26;101136.22;;;21.58
41654;BMP280;30790;52.030;7.110;2022-10-04T17:35:02;101135.41;;;21.58
41654;BMP280;30790;52.030;7.110;2022-10-04T17:44:11;101141.34;;;21.55
41654;BMP280;30790;52.030;7.110;2022-10-04T17:46:46;101151.78;;;21.58
41654;BMP280;30790;52.030;7.110;2022-10-04T17:52:33;101158.91;;;21.59
41654;BMP280;30790;52.030;7.110;2022-10-04T17:55:28;101170.66;;;21.59
41654;BMP280;30790;52.030;7.110;2022-10-04T17:58:02;101157.25;;;21.58
41654;BMP280;30790;52.030;7.110;2022-10-04T18:00:54;101167.69;;;21.61
41654;BMP280;30790;52.030;7.110;2022-10-04T18:03:30;101162.72;;;21.58
41654;BMP280;30790;52.030;7.110;2022-10-04T18:06:01;101165.53;;;21.63
41654;BMP280;30790;52.030;7.110;2022-10-04T18:11:18;101155.44;;;21.64
41654;BMP280;30790;52.030;7.110;2022-10-04T18:13:54;101150.22;;;21.62
41654;BMP280;30790;52.030;7.110;2022-10-04T18:16:30;101152.50;;;21.65
41654;BMP280;30790;52.030;7.110;2022-10-04T18:19:42;101151.41;;;21.66
41654;BMP280;30790;52.030;7.110;2022-10-04T18:22:13;101154.41;;;21.65
41654;BMP280;30790;52.030;7.110;2022-10-04T18:24:41;101155.59;;;21.57
41654;BMP280;30790;52.030;7.110;2022-10-04T18:27:25;101151.44;;;21.54
41654;BMP280;30790;52.030;7.110;2022-10-04T18:34:55;101143.59;;;21.58
41654;BMP280;30790;52.030;7.110;2022-10-04T18:37:35;101148.47;;;21.56
41654;BMP280;30790;52.030;7.110;2022-10-04T18:40:16;101147.97;;;21.59
41654;BMP280;30790;52.030;7.110;2022-10-04T18:42:49;101161.63;;;21.59
41654;BMP280;30790;52.030;7.110;2022-10-04T18:47:46;101168.19;;;21.58
41654;BMP280;30790;52.030;7.110;2022-10-04T18:50:37;101168.19;;;21.58
41654;BMP280;30790;52.030;7.110;2022-10-04T18:56:03;101155.59;;;21.57
41654;BMP280;30790;52.030;7.110;2022-10-04T19:01:37;101155.34;;;21.58
41654;BMP280;30790;52.030;7.110;2022-10-04T19:07:09;101144.66;;;21.57
41654;BMP280;30790;52.030;7.110;2022-10-04T19:09:50;101145.50;;;21.57
41654;BMP280;30790;52.030;7.110;2022-10-04T19:12:25;101146.31;;;21.58
41654;BMP280;30790;52.030;7.110;2022-10-04T19:15:09;101139.69;;;21.54
41654;BMP280;30790;52.030;7.110;2022-10-04T19:17:54;101141.59;;;21.53
41654;BMP280;30790;52.030;7.110;2022-10-04T19:23:07;101132.31;;;21.54
41654;BMP280;30790;52.030;7.110;2022-10-04T19:25:44;101137.78;;;21.54
41654;BMP280;30790;52.030;7.110;2022-10-04T19:28:20;101147.63;;;21.55
41654;BMP280;30790;52.030;7.110;2022-10-04T19:31:28;101151.19;;;21.56
41654;BMP280;30790;52.030;7.110;2022-10-04T19:34:04;101157.97;;;21.65
41654;BMP280;30790;52.030;7.110;2022-10-04T19:44:09;101170.22;;;21.79
41654;BMP280;30790;52.030;7.110;2022-10-04T19:46:50;101162.03;;;21.79
41654;BMP280;30790;52.030;7.110;2022-10-04T19:52:31;101147.53;;;21.79
41654;BMP280;30790;52.030;7.110;2022-10-04T19:55:20;101147.53;;;21.79
41654;BMP280;30790;52.030;7.110;2022-10-04T19:57:50;101150.84;;;21.81
41654;BMP280;30790;52.030;7.110;2022-10-04T20:00:16;101145.63;;;21.79
41654;BMP280;30790;52.030;7.110;2022-10-04T20:02:44;101145.06;;;21.77
41654;BMP280;30790;52.030;7.110;2022-10-04T20:05:14;101146.72;;;21.78
41654;BMP280;30790;52.030;7.110;2022-10-04T20:07:47;101137.94;;;21.76
41654;BMP280;30790;52.030;7.110;2022-10-04T20:10:29;101127.25;;;21.75
41654;BMP280;30790;52.030;7.110;2022-10-04T20:26:03;101114.09;;;21.72
41654;BMP280;30790;52.030;7.110;2022-10-04T20:31:00;101102.81;;;21.68
41654;BMP280;30790;52.030;7.110;2022-10-04T20:36:00;101080.34;;;21.49
41654;BMP280;30790;52.030;7.110;2022-10-04T20:38:43;101091.69;;;21.58
41654;BMP280;30790;52.030;7.110;2022-10-04T20:43:54;101093.84;;;21.56
41654;BMP280;30790;52.030;7.110;2022-10-04T20:46:24;101090.53;;;21.54
41654;BMP280;30790;52.030;7.110;2022-10-04T20:48:51;101100.88;;;21.52
41654;BMP280;30790;52.030;7.110;2022-10-04T20:51:18;101096.47;;;21.51
41654;BMP280;30790;52.030;7.110;2022-10-04T20:53:44;101104.19;;;21.54
41654;BMP280;30790;52.030;7.110;2022-10-04T20:56:19;101108.00;;;21.53
41654;BMP280;30790;52.030;7.110;2022-10-04T20:58:53;101102.78;;;21.51
41654;BMP280;30790;52.030;7.110;2022-10-04T21:01:24;101108.81;;;21.53
41654;BMP280;30790;52.030;7.110;2022-10-04T21:04:21;101123.31;;;21.54
41654;BMP280;30790;52.030;7.110;2022-10-04T21:07:20;101116.75;;;21.55
41654;BMP280;30790;52.030;7.110;2022-10-04T21:09:46;101109.88;;;21.52
41654;BMP280;30790;52.030;7.110;2022-10-04T21:12:31;101109.06;;;21.52
41654;BMP280;30790;52.030;7.110;2022-10-04T21:15:04;101098.38;;;21.50
41654;BMP280;30790;52.030;7.110;2022-10-04T21:19:56;101092.34;;;21.48
41654;BMP280;30790;52.030;7.110;2022-10-04T21:27:35;101091.00;;;21.51
41654;BMP280;30790;52.030;7.110;2022-10-04T21:30:06;101085.56;;;21.51
41654;BMP280;30790;52.030;7.110;2022-10-04T21:32:36;101090.44;;;21.49
41654;BMP280;30790;52.030;7.110;2022-10-04T21:35:04;101100.28;;;21.50
41654;BMP280;30790;52.030;7.110;2022-10-04T21:37:30;101108.47;;;21.50
41654;BMP280;30790;52.030;7.110;2022-10-04T21:39:55;101103.00;;;21.50
41654;BMP280;30790;52.030;7.110;2022-10-04T21:42:21;101096.13;;;21.47
41654;BMP280;30790;52.030;7.110;2022-10-04T21:44:46;101097.47;;;21.45
41654;BMP280;30790;52.030;7.110;2022-10-04T21:47:12;101086.69;;;21.38
41654;BMP280;30790;52.030;7.110;2022-10-04T21:49:37;101105.41;;;21.46
41654;BMP280;30790;52.030;7.110;2022-10-04T21:52:02;101091.41;;;21.43
41654;BMP280;30790;52.030;7.110;2022-10-04T21:54:28;101102.91;;;21.45
41654;BMP280;30790;52.030;7.110;2022-10-04T21:56:53;101104.81;;;21.44
41654;BMP280;30790;52.030;7.110;2022-10-04T21:59:19;101109.22;;;21.45
41654;BMP280;30790;52.030;7.110;2022-10-04T22:01:45;101094.63;;;21.40
41654;BMP280;30790;52.030;7.110;2022-10-04T22:04:10;101097.63;;;21.38
41654;BMP280;30790;52.030;7.110;2022-10-04T22:06:35;101101.16;;;21.39
41654;BMP280;30790;52.030;7.110;2022-10-04T22:09:00;101093.44;;;21.36
41654;BMP280;30790;52.030;7.110;2022-10-04T22:11:26;101088.97;;;21.29
41654;BMP280;30790;52.030;7.110;2022-10-04T22:13:51;101091.31;;;21.38
41654;BMP280;30790;52.030;7.110;2022-10-04T22:16:16;101091.53;;;21.36
41654;BMP280;30790;52.030;7.110;2022-10-04T22:18:42;101099.16;;;21.34
41654;BMP280;30790;52.030;7.110;2022-10-04T22:21:07;101104.97;;;21.38
41654;BMP280;30790;52.030;7.110;2022-10-04T22:23:38;101098.31;;;21.34
41654;BMP280;30790;52.030;7.110;2022-10-04T22:26:11;101100.22;;;21.33
41654;BMP280;30790;52.030;7.110;2022-10-04T22:28:41;101103.78;;;21.34
41654;BMP280;30790;52.030;7.110;2022-10-04T22:31:12;101110.91;;;21.35